createdAt,value
2023-11-02T00:01:36.281Z,13.10
2023-11-02T00:04:05.670Z,13.11
2023-11-02T00:06:35.510Z,13.12
2023-11-02T00:09:09.977Z,13.17
2023-11-02T00:11:46.678Z,13.16
2023-11-02T00:14:16.639Z,13.17
2023-11-02T00:16:46.001Z,13.15
2023-11-02T00:19:33.138Z,13.13
2023-11-02T00:22:07.373Z,13.14
2023-11-02T00:24:36.394Z,13.17
2023-11-02T00:27:03.922Z,13.26
2023-11-02T00:29:33.056Z,13.28
2023-11-02T00:32:02.191Z,13.31
2023-11-02T00:34:35.918Z,13.36
2023-11-02T00:37:02.604Z,13.32
2023-11-02T00:39:30.061Z,13.28
2023-11-02T00:41:56.808Z,13.28
2023-11-02T00:44:26.905Z,13.23
2023-11-02T00:46:56.340Z,13.14
2023-11-02T00:49:23.665Z,13.14
2023-11-02T00:51:56.687Z,13.15
2023-11-02T00:54:37.682Z,13.17
2023-11-02T00:57:06.389Z,13.12
2023-11-02T00:59:38.119Z,13.08
2023-11-02T01:02:06.835Z,13.07
2023-11-02T01:05:01.861Z,13.05
2023-11-02T01:07:30.151Z,12.96
2023-11-02T01:10:00.368Z,12.89
2023-11-02T01:12:37.843Z,12.76
2023-11-02T01:15:09.696Z,12.71
2023-11-02T01:17:37.747Z,12.69
2023-11-02T01:20:07.515Z,12.69
2023-11-02T01:22:53.970Z,12.67
2023-11-02T01:25:21.096Z,12.71
2023-11-02T01:27:52.283Z,12.73
2023-11-02T01:30:19.816Z,12.70
2023-11-02T01:32:48.865Z,12.59
2023-11-02T01:35:33.866Z,12.64
2023-11-02T01:38:00.570Z,12.60
2023-11-02T01:40:32.215Z,12.56
2023-11-02T01:42:59.332Z,12.50
2023-11-02T01:45:26.519Z,12.47
2023-11-02T01:48:04.918Z,12.43
2023-11-02T01:50:34.934Z,12.42
2023-11-02T01:53:20.542Z,12.41
2023-11-02T01:56:08.725Z,12.42
2023-11-02T01:58:54.396Z,12.50
2023-11-02T02:01:28.495Z,12.58
2023-11-02T02:03:57.861Z,12.61
2023-11-02T02:06:25.952Z,12.59
2023-11-02T02:09:00.650Z,12.59
2023-11-02T02:11:48.528Z,12.60
2023-11-02T02:14:15.251Z,12.64
2023-11-02T02:16:50.723Z,12.71
2023-11-02T02:19:20.462Z,12.78
2023-11-02T02:21:52.205Z,12.76
2023-11-02T02:24:28.081Z,12.75
2023-11-02T02:26:54.908Z,12.76
2023-11-02T02:29:48.944Z,12.74
2023-11-02T02:32:15.554Z,12.73
2023-11-02T02:34:42.175Z,12.73
2023-11-02T02:37:18.625Z,12.71
2023-11-02T02:39:51.311Z,12.71
2023-11-02T02:42:18.540Z,12.68
2023-11-02T02:44:46.509Z,12.65
2023-11-02T02:47:13.249Z,12.62
2023-11-02T02:49:43.830Z,12.55
2023-11-02T02:52:13.481Z,12.51
2023-11-02T02:54:41.305Z,12.46
2023-11-02T02:57:10.115Z,12.41
2023-11-02T02:59:38.440Z,12.38
2023-11-02T03:02:08.349Z,12.35
2023-11-02T03:04:35.697Z,12.32
2023-11-02T03:07:03.553Z,12.40
2023-11-02T03:09:31.410Z,12.38
2023-11-02T03:12:04.425Z,12.35
2023-11-02T03:14:33.878Z,12.35
2023-11-02T03:17:10.975Z,12.36
2023-11-02T03:19:43.065Z,12.35
2023-11-02T03:22:10.678Z,12.30
2023-11-02T03:24:38.995Z,12.30
2023-11-02T03:27:07.301Z,12.33
2023-11-02T03:29:42.988Z,12.33
2023-11-02T03:32:12.614Z,12.28
2023-11-02T03:34:42.429Z,12.21
2023-11-02T03:37:12.423Z,12.19
2023-11-02T03:39:57.800Z,12.20
2023-11-02T03:42:24.478Z,12.17
2023-11-02T03:45:12.561Z,12.17
2023-11-02T03:48:01.673Z,12.14
2023-11-02T03:50:47.219Z,12.15
2023-11-02T03:53:25.009Z,12.12
2023-11-02T03:56:01.065Z,12.08
2023-11-02T03:58:40.136Z,12.08
2023-11-02T04:01:16.802Z,12.06
2023-11-02T04:03:47.428Z,12.02
2023-11-02T04:06:16.655Z,11.93
2023-11-02T04:08:44.327Z,11.91
2023-11-02T04:11:22.136Z,11.85
2023-11-02T04:13:50.074Z,11.82
2023-11-02T04:16:16.787Z,11.72
2023-11-02T04:18:43.528Z,11.67
2023-11-02T04:21:11.729Z,11.65
2023-11-02T04:23:38.517Z,11.61
2023-11-02T04:26:08.361Z,11.57
2023-11-02T04:28:35.040Z,11.56
2023-11-02T04:31:06.455Z,11.46
2023-11-02T04:33:33.184Z,11.23
2023-11-02T04:36:00.165Z,11.03
2023-11-02T04:38:26.838Z,11.06
2023-11-02T04:40:55.292Z,11.13
2023-11-02T04:43:21.987Z,11.22
2023-11-02T04:45:50.960Z,11.30
2023-11-02T04:48:22.137Z,11.35
2023-11-02T04:50:53.787Z,11.37
2023-11-02T04:53:25.971Z,11.24
2023-11-02T04:55:52.737Z,11.16
2023-11-02T04:58:19.539Z,10.94
2023-11-02T05:00:48.707Z,11.01
2023-11-02T05:03:15.626Z,10.99
2023-11-02T05:05:45.147Z,10.91
2023-11-02T05:08:14.456Z,10.98
2023-11-02T05:10:41.189Z,11.06
2023-11-02T05:13:10.136Z,11.03
2023-11-02T05:15:54.106Z,10.98
2023-11-02T05:18:23.417Z,11.03
2023-11-02T05:20:52.017Z,10.98
2023-11-02T05:23:18.795Z,10.98
2023-11-02T05:25:45.905Z,10.96
2023-11-02T05:28:12.556Z,11.02
2023-11-02T05:30:40.819Z,9.40
2023-11-02T05:33:10.204Z,11.12
2023-11-02T05:35:39.374Z,11.10
2023-11-02T05:38:09.028Z,11.10
2023-11-02T05:40:35.687Z,11.10
2023-11-02T05:43:02.459Z,11.11
2023-11-02T05:45:29.179Z,11.01
2023-11-02T05:47:55.962Z,10.93
2023-11-02T05:50:22.863Z,10.97
2023-11-02T05:52:49.522Z,11.04
2023-11-02T05:55:16.309Z,11.08
2023-11-02T05:57:43.333Z,11.11
2023-11-02T06:00:12.462Z,11.07
2023-11-02T06:02:40.036Z,11.06
2023-11-02T06:05:07.194Z,11.02
2023-11-02T06:07:41.518Z,11.03
2023-11-02T06:10:10.410Z,11.12
2023-11-02T06:12:37.247Z,11.15
2023-11-02T06:15:06.864Z,11.16
2023-11-02T06:17:38.132Z,11.22
2023-11-02T06:20:07.789Z,11.24
2023-11-02T06:22:34.810Z,11.29
2023-11-02T06:25:04.009Z,11.30
2023-11-02T06:27:30.768Z,11.34
2023-11-02T06:29:57.751Z,11.30
2023-11-02T06:32:26.948Z,11.29
2023-11-02T06:35:02.019Z,11.34
2023-11-02T06:37:30.785Z,11.40
2023-11-02T06:39:57.615Z,11.50
2023-11-02T06:42:28.602Z,11.60
2023-11-02T06:44:57.881Z,11.65
2023-11-02T06:47:27.132Z,11.73
2023-11-02T06:49:54.513Z,11.78
2023-11-02T06:52:21.141Z,11.89
2023-11-02T06:54:47.890Z,11.99
2023-11-02T06:57:16.897Z,12.11
2023-11-02T06:59:44.081Z,12.20
2023-11-02T07:02:12.766Z,12.25
2023-11-02T07:04:41.874Z,12.34
2023-11-02T07:07:11.060Z,12.37
2023-11-02T07:09:40.164Z,12.41
2023-11-02T07:12:13.311Z,12.48
2023-11-02T07:14:45.721Z,12.54
2023-11-02T07:17:13.282Z,12.57
2023-11-02T07:19:39.967Z,12.58
2023-11-02T07:22:07.018Z,12.57
2023-11-02T07:24:33.772Z,12.53
2023-11-02T07:27:03.101Z,12.51
2023-11-02T07:29:29.760Z,12.50
2023-11-02T07:31:56.397Z,12.52
2023-11-02T07:34:23.113Z,12.52
2023-11-02T07:36:50.846Z,12.52
2023-11-02T07:39:19.953Z,12.57
2023-11-02T07:41:46.675Z,12.58
2023-11-02T07:44:18.699Z,12.61
2023-11-02T07:46:45.693Z,12.67
2023-11-02T07:49:12.832Z,12.76
2023-11-02T07:51:39.611Z,12.84
2023-11-02T07:54:08.747Z,12.88
2023-11-02T07:56:35.410Z,12.77
2023-11-02T07:59:04.293Z,12.65
2023-11-02T08:01:33.306Z,12.70
2023-11-02T08:04:03.606Z,12.71
2023-11-02T08:06:33.836Z,12.86
2023-11-02T08:09:00.690Z,13.00
2023-11-02T08:11:29.631Z,12.75
2023-11-02T08:13:57.887Z,12.68
2023-11-02T08:16:27.506Z,12.82
2023-11-02T08:18:54.134Z,12.95
2023-11-02T08:21:23.553Z,13.12
2023-11-02T08:23:53.183Z,13.28
2023-11-02T08:26:26.010Z,13.47
2023-11-02T08:28:53.228Z,13.65
2023-11-02T08:31:26.411Z,13.75
2023-11-02T08:33:53.423Z,13.84
2023-11-02T08:36:20.825Z,13.83
2023-11-02T08:38:50.376Z,13.86
2023-11-02T08:41:31.423Z,13.97
2023-11-02T08:44:00.236Z,14.07
2023-11-02T08:46:27.383Z,14.23
2023-11-02T08:48:57.153Z,14.34
2023-11-02T08:51:28.792Z,14.47
2023-11-02T08:53:56.011Z,14.52
2023-11-02T08:56:25.123Z,14.66
2023-11-02T08:58:52.595Z,14.77
2023-11-02T09:01:20.070Z,14.88
2023-11-02T09:03:46.726Z,14.96
2023-11-02T09:06:15.603Z,15.10
2023-11-02T09:08:42.308Z,15.17
2023-11-02T09:11:09.324Z,15.15
2023-11-02T09:13:38.327Z,15.09
2023-11-02T09:16:10.307Z,15.21
2023-11-02T09:18:37.097Z,15.43
2023-11-02T09:21:05.727Z,15.65
2023-11-02T09:23:35.920Z,15.75
2023-11-02T09:26:03.365Z,15.74
2023-11-02T09:28:29.990Z,15.76
2023-11-02T09:30:59.299Z,15.88
2023-11-02T09:33:26.189Z,15.89
2023-11-02T09:35:52.975Z,16.07
2023-11-02T09:38:20.804Z,16.21
2023-11-02T09:40:49.936Z,16.24
2023-11-02T09:43:21.075Z,16.36
2023-11-02T09:45:47.858Z,16.47
2023-11-02T09:48:14.640Z,16.67
2023-11-02T09:50:43.769Z,16.81
2023-11-02T09:53:13.026Z,16.96
2023-11-02T09:55:40.484Z,17.03
2023-11-02T09:58:10.854Z,17.09
2023-11-02T10:00:38.148Z,17.29
2023-11-02T10:03:04.989Z,17.45
2023-11-02T10:05:34.484Z,17.57
2023-11-02T10:08:01.284Z,17.76
2023-11-02T10:10:32.218Z,17.87
2023-11-02T10:12:59.956Z,18.03
2023-11-02T10:15:26.714Z,18.20
2023-11-02T10:17:53.480Z,18.41
2023-11-02T10:20:20.440Z,18.56
2023-11-02T10:23:11.043Z,18.70
2023-11-02T10:25:42.664Z,18.80
2023-11-02T10:28:11.975Z,19.02
2023-11-02T10:30:38.955Z,19.31
2023-11-02T10:33:08.898Z,19.31
2023-11-02T10:35:38.766Z,19.25
2023-11-02T10:38:08.182Z,19.39
2023-11-02T10:40:41.882Z,19.54
2023-11-02T10:43:10.894Z,19.82
2023-11-02T10:45:37.732Z,20.10
2023-11-02T10:48:04.490Z,20.08
2023-11-02T10:50:31.137Z,19.56
2023-11-02T10:53:02.762Z,20.05
2023-11-02T10:55:42.068Z,19.97
2023-11-02T10:58:08.813Z,19.86
2023-11-02T11:00:35.676Z,19.93
2023-11-02T11:03:08.199Z,20.20
2023-11-02T11:05:36.680Z,20.19
2023-11-02T11:08:05.597Z,20.01
2023-11-02T11:10:32.341Z,20.21
2023-11-02T11:13:02.050Z,20.32
2023-11-02T11:15:29.071Z,20.20
2023-11-02T11:17:57.370Z,20.37
2023-11-02T11:20:29.388Z,20.72
2023-11-02T11:22:56.091Z,20.88
2023-11-02T11:25:25.215Z,21.11
2023-11-02T11:27:54.353Z,21.29
2023-11-02T11:30:21.093Z,21.43
2023-11-02T11:32:48.957Z,21.50
2023-11-02T11:35:18.257Z,21.73
2023-11-02T11:37:59.228Z,21.81
2023-11-02T11:40:26.380Z,22.17
2023-11-02T11:42:53.393Z,22.33
2023-11-02T11:45:25.270Z,22.49
2023-11-02T11:47:52.089Z,22.40
2023-11-02T11:50:30.715Z,22.17
2023-11-02T11:53:16.812Z,22.23
2023-11-02T11:55:46.280Z,22.54
2023-11-02T11:58:15.867Z,22.89
2023-11-02T12:00:55.334Z,23.07
2023-11-02T12:03:38.201Z,22.80
2023-11-02T12:06:12.410Z,22.19
2023-11-02T12:08:45.582Z,22.00
2023-11-02T12:11:15.418Z,22.51
2023-11-02T12:13:56.416Z,22.77
2023-11-02T12:16:23.243Z,22.78
2023-11-02T12:18:53.398Z,22.86
2023-11-02T12:21:21.432Z,23.09
2023-11-02T12:23:48.535Z,23.22
2023-11-02T12:26:23.371Z,23.21
2023-11-02T12:28:53.980Z,23.59
2023-11-02T12:31:28.414Z,23.80
2023-11-02T12:33:55.446Z,24.09
2023-11-02T12:36:24.823Z,24.33
2023-11-02T12:38:52.926Z,24.19
2023-11-02T12:41:29.776Z,24.10
2023-11-02T12:44:08.444Z,24.00
2023-11-02T12:46:35.854Z,23.88
2023-11-02T12:49:12.967Z,23.82
2023-11-02T12:51:40.317Z,23.60
2023-11-02T12:54:10.622Z,23.81
2023-11-02T12:56:37.274Z,24.06
2023-11-02T12:59:08.361Z,23.71
2023-11-02T13:01:54.622Z,23.75
2023-11-02T13:04:24.526Z,23.82
2023-11-02T13:06:52.318Z,23.82
2023-11-02T13:09:20.402Z,23.83
2023-11-02T13:11:49.148Z,24.12
2023-11-02T13:14:20.376Z,24.19
2023-11-02T13:16:51.696Z,23.76
2023-11-02T13:19:19.075Z,23.62
2023-11-02T13:21:51.354Z,23.49
2023-11-02T13:24:21.255Z,22.98
2023-11-02T13:26:50.293Z,22.45
2023-11-02T13:29:23.067Z,22.31
2023-11-02T13:31:49.982Z,22.18
2023-11-02T13:34:20.139Z,21.95
2023-11-02T13:36:47.836Z,22.10
2023-11-02T13:39:14.709Z,22.50
2023-11-02T13:41:44.466Z,23.02
2023-11-02T13:44:11.295Z,23.54
2023-11-02T13:46:43.409Z,24.00
2023-11-02T13:49:12.541Z,24.34
2023-11-02T13:51:39.421Z,24.20
2023-11-02T13:54:08.676Z,23.68
2023-11-02T13:56:37.783Z,23.56
2023-11-02T13:59:04.536Z,23.27
2023-11-02T14:01:33.169Z,22.95
2023-11-02T14:04:05.054Z,22.54
2023-11-02T14:06:34.905Z,22.27
2023-11-02T14:09:04.612Z,22.03
2023-11-02T14:11:33.977Z,21.72
2023-11-02T14:14:01.596Z,21.53
2023-11-02T14:16:28.537Z,21.19
2023-11-02T14:18:55.272Z,20.97
2023-11-02T14:21:22.115Z,20.82
2023-11-02T14:23:48.860Z,20.50
2023-11-02T14:26:15.603Z,20.36
2023-11-02T14:28:42.596Z,20.19
2023-11-02T14:31:09.782Z,20.04
2023-11-02T14:33:36.599Z,19.89
2023-11-02T14:36:06.300Z,19.82
2023-11-02T14:38:33.867Z,19.69
2023-11-02T14:41:00.682Z,19.59
2023-11-02T14:43:27.357Z,19.48
2023-11-02T14:45:53.999Z,19.32
2023-11-02T14:48:23.491Z,19.25
2023-11-02T14:50:52.672Z,19.18
2023-11-02T14:53:19.439Z,19.09
2023-11-02T14:55:46.070Z,19.01
2023-11-02T14:58:15.202Z,18.95
2023-11-02T15:00:45.847Z,18.79
2023-11-02T15:03:12.805Z,18.67
2023-11-02T15:05:39.966Z,18.54
2023-11-02T15:08:06.744Z,18.46
2023-11-02T15:10:35.682Z,18.38
2023-11-02T15:13:04.459Z,18.35
2023-11-02T15:15:33.618Z,18.29
2023-11-02T15:18:00.439Z,18.13
2023-11-02T15:20:27.160Z,18.09
2023-11-02T15:22:56.606Z,17.99
2023-11-02T15:25:23.461Z,17.90
2023-11-02T15:27:52.649Z,17.87
2023-11-02T15:30:24.283Z,17.78
2023-11-02T15:32:51.100Z,17.74
2023-11-02T15:35:18.121Z,17.74
2023-11-02T15:37:45.400Z,17.64
2023-11-02T15:40:12.781Z,17.65
2023-11-02T15:42:39.773Z,17.64
2023-11-02T15:45:09.457Z,17.64
2023-11-02T15:47:36.712Z,17.64
2023-11-02T15:50:04.804Z,17.63
2023-11-02T15:52:37.700Z,17.57
2023-11-02T15:55:06.842Z,17.54
2023-11-02T15:57:34.196Z,17.54
2023-11-02T16:00:01.079Z,17.45
2023-11-02T16:02:27.709Z,17.36
2023-11-02T16:04:56.909Z,17.30
2023-11-02T16:07:26.283Z,17.35
2023-11-02T16:09:53.042Z,17.32
2023-11-02T16:12:22.125Z,17.30
2023-11-02T16:14:48.805Z,17.28
2023-11-02T16:17:15.414Z,17.21
2023-11-02T16:19:42.141Z,17.18
2023-11-02T16:22:08.913Z,17.16
2023-11-02T16:24:36.036Z,17.15
2023-11-02T16:27:02.744Z,17.09
2023-11-02T16:29:29.321Z,17.07
2023-11-02T16:31:57.442Z,17.10
2023-11-02T16:34:34.627Z,17.05
2023-11-02T16:37:06.592Z,17.11
2023-11-02T16:39:34.514Z,17.17
2023-11-02T16:42:02.909Z,17.26
2023-11-02T16:44:32.730Z,17.31
2023-11-02T16:47:00.543Z,17.31
2023-11-02T16:49:28.387Z,17.31
2023-11-02T16:51:57.658Z,17.33
2023-11-02T16:54:25.631Z,17.36
2023-11-02T16:56:52.675Z,17.40
2023-11-02T16:59:20.179Z,17.44
2023-11-02T17:01:47.632Z,17.50
2023-11-02T17:04:14.963Z,17.57
2023-11-02T17:06:41.862Z,17.60
2023-11-02T17:09:10.495Z,17.56
2023-11-02T17:11:37.587Z,17.50
2023-11-02T17:14:06.920Z,17.45
2023-11-02T17:16:33.691Z,17.42
2023-11-02T17:19:01.046Z,17.34
2023-11-02T17:21:28.024Z,17.28
2023-11-02T17:23:55.275Z,17.22
2023-11-02T17:26:21.950Z,17.16
2023-11-02T17:28:48.793Z,17.18
2023-11-02T17:31:15.698Z,17.16
2023-11-02T17:33:45.575Z,17.14
2023-11-02T17:36:12.690Z,17.13
2023-11-02T17:38:44.228Z,17.13
2023-11-02T17:41:10.872Z,17.14
2023-11-02T17:43:42.924Z,17.16
2023-11-02T17:46:09.557Z,17.16
2023-11-02T17:48:36.375Z,17.18
2023-11-02T17:51:06.529Z,17.17
2023-11-02T17:53:33.661Z,17.17
2023-11-02T17:56:00.419Z,17.22
2023-11-02T17:58:29.710Z,17.22
2023-11-02T18:00:57.980Z,17.18
2023-11-02T18:03:24.748Z,17.15
2023-11-02T18:05:52.649Z,17.12
2023-11-02T18:08:25.527Z,17.04
2023-11-02T18:10:52.285Z,16.94
2023-11-02T18:13:19.037Z,16.89
2023-11-02T18:15:50.688Z,16.85
2023-11-02T18:18:20.059Z,16.89
2023-11-02T18:20:49.093Z,16.96
2023-11-02T18:23:18.290Z,16.97
2023-11-02T18:25:47.631Z,17.00
2023-11-02T18:28:14.309Z,17.04
2023-11-02T18:30:41.039Z,17.01
2023-11-02T18:33:10.898Z,16.99
2023-11-02T18:35:37.750Z,16.96
2023-11-02T18:38:04.506Z,16.93
2023-11-02T18:40:31.836Z,16.84
2023-11-02T18:42:58.634Z,16.82
2023-11-02T18:45:25.390Z,16.78
2023-11-02T18:47:53.038Z,16.74
2023-11-02T18:50:22.816Z,16.70
2023-11-02T18:52:54.463Z,16.64
2023-11-02T18:55:21.621Z,16.65
2023-11-02T18:57:48.408Z,16.67
2023-11-02T19:00:20.302Z,16.60
2023-11-02T19:02:51.142Z,16.66
2023-11-02T19:05:18.074Z,16.65
2023-11-02T19:07:47.505Z,16.65
2023-11-02T19:10:14.375Z,16.66
2023-11-02T19:12:41.107Z,16.67
2023-11-02T19:15:11.377Z,16.69
2023-11-02T19:17:38.020Z,16.65
2023-11-02T19:20:05.371Z,16.67
2023-11-02T19:22:34.938Z,16.68
2023-11-02T19:25:04.128Z,16.67
2023-11-02T19:27:34.154Z,16.62
2023-11-02T19:30:03.680Z,16.67
2023-11-02T19:32:34.266Z,16.73
2023-11-02T19:35:00.993Z,16.69
2023-11-02T19:37:29.986Z,16.65
2023-11-02T19:39:57.191Z,16.55
2023-11-02T19:42:24.886Z,16.57
2023-11-02T19:44:51.605Z,16.44
2023-11-02T19:47:18.624Z,16.43
2023-11-02T19:49:47.647Z,16.31
2023-11-02T19:52:14.323Z,16.36
2023-11-02T19:54:41.545Z,16.30
2023-11-02T19:57:10.355Z,16.28
2023-11-02T19:59:37.216Z,16.35
2023-11-02T20:02:06.296Z,16.36
2023-11-02T20:04:35.104Z,16.44
2023-11-02T20:07:01.947Z,16.48
2023-11-02T20:09:29.698Z,16.42
2023-11-02T20:11:56.394Z,16.47
2023-11-02T20:14:23.518Z,16.50
2023-11-02T20:16:50.158Z,16.51
2023-11-02T20:19:16.872Z,16.55
2023-11-02T20:21:47.244Z,16.48
2023-11-02T20:24:16.373Z,16.48
2023-11-02T20:26:43.059Z,16.44
2023-11-02T20:29:09.754Z,16.38
2023-11-02T20:31:38.904Z,16.36
2023-11-02T20:34:05.692Z,16.32
2023-11-02T20:36:34.789Z,16.28
2023-11-02T20:39:01.449Z,16.28
2023-11-02T20:41:28.032Z,16.23
2023-11-02T20:43:54.667Z,16.17
2023-11-02T20:46:21.322Z,16.08
2023-11-02T20:48:48.377Z,16.02
2023-11-02T20:51:15.485Z,15.99
2023-11-02T20:53:42.259Z,15.98
2023-11-02T20:56:11.440Z,15.97
2023-11-02T20:58:40.663Z,15.89
2023-11-02T21:01:07.425Z,15.84
2023-11-02T21:03:34.297Z,15.85
2023-11-02T21:06:04.659Z,15.73
2023-11-02T21:08:33.979Z,15.74
2023-11-02T21:11:02.298Z,15.74
2023-11-02T21:13:29.368Z,15.72
2023-11-02T21:15:56.185Z,15.67
2023-11-02T21:18:25.562Z,15.57
2023-11-02T21:20:54.738Z,15.59
2023-11-02T21:23:24.043Z,15.65
2023-11-02T21:25:50.872Z,15.66
2023-11-02T21:28:18.672Z,15.61
2023-11-02T21:30:47.845Z,15.51
2023-11-02T21:33:16.956Z,15.54
2023-11-02T21:35:43.616Z,15.52
2023-11-02T21:38:10.260Z,15.49
2023-11-02T21:40:39.626Z,15.49
2023-11-02T21:43:06.391Z,15.48
2023-11-02T21:45:35.530Z,15.50
2023-11-02T21:48:04.628Z,15.47
2023-11-02T21:50:31.441Z,15.48
2023-11-02T21:53:01.260Z,15.36
2023-11-02T21:55:32.385Z,15.35
2023-11-02T21:57:59.078Z,15.15
2023-11-02T22:00:25.802Z,15.09
2023-11-02T22:02:52.530Z,15.13
2023-11-02T22:05:19.458Z,15.14
2023-11-02T22:07:46.220Z,15.18
2023-11-02T22:10:12.888Z,15.17
2023-11-02T22:12:41.899Z,15.28
2023-11-02T22:15:11.200Z,15.33
2023-11-02T22:17:37.843Z,15.19
2023-11-02T22:20:06.195Z,15.26
2023-11-02T22:22:33.170Z,15.10
2023-11-02T22:24:59.873Z,15.15
2023-11-02T22:27:27.631Z,15.20
2023-11-02T22:29:54.275Z,15.18
2023-11-02T22:32:20.895Z,15.28
2023-11-02T22:34:50.635Z,15.15
2023-11-02T22:37:17.492Z,15.19
2023-11-02T22:39:44.207Z,15.27
2023-11-02T22:42:13.242Z,15.35
2023-11-02T22:44:41.489Z,15.33
2023-11-02T22:47:10.640Z,15.38
2023-11-02T22:49:37.241Z,15.41
2023-11-02T22:52:10.514Z,15.46
2023-11-02T22:54:37.941Z,15.45
2023-11-02T22:57:07.953Z,15.48
2023-11-02T22:59:37.412Z,15.45
2023-11-02T23:02:06.498Z,15.38
2023-11-02T23:04:35.638Z,15.34
2023-11-02T23:07:02.391Z,15.31
2023-11-02T23:09:31.660Z,15.31
2023-11-02T23:11:59.222Z,15.36
2023-11-02T23:14:31.377Z,15.42
2023-11-02T23:16:58.010Z,15.46
2023-11-02T23:19:27.597Z,15.44
2023-11-02T23:21:56.809Z,15.39
2023-11-02T23:24:23.393Z,15.36
2023-11-02T23:26:52.843Z,15.37
2023-11-02T23:29:19.472Z,15.30
2023-11-02T23:31:46.157Z,15.26
2023-11-02T23:34:12.898Z,15.24
2023-11-02T23:36:39.569Z,15.16
2023-11-02T23:39:08.805Z,15.14
2023-11-02T23:41:36.116Z,15.01
2023-11-02T23:44:02.953Z,14.99
2023-11-02T23:46:29.910Z,14.96
2023-11-02T23:48:59.545Z,14.94
2023-11-02T23:51:28.587Z,14.98
2023-11-02T23:53:55.309Z,14.99
2023-11-02T23:56:24.238Z,14.99
2023-11-02T23:58:50.887Z,14.98
